Portada
METAR-TAF:

METAR-TAF

Aeroports :

Florianópolis, Santa Catarina, Brasil

latitud: 27-40S, longitud: 048-33W, altitud: 5 m

Observació

L'informe es va fer fa 30 minuts, a les 09:00 UTC
Vent 4 kt del Nord-Est
Temperatura 14°C
Humitat 67%
Pressió 1024 hPa
Visibilitat 10 km o més
Cel ennuvolat a una alçada de 4000 ft

METAR: SBFL 200900Z 04004KT 9999 BKN040 14/08 Q1024

Hora: 06:30 (09:30 UTC)

Pronòstic

L'informe es va fer fa 6 hores i 30 minuts, a les 03:00 UTC
Pronòstic vàlid del 20 a les 06 UTC al 21 a les 06 UTC
Vent 8 kt del Sud
Visibilitat 10 km o més
Cel ennuvolat a una alçada de 3000 ft
Evolucionant progressivament
l' 20 a les 13 UTC al 20 a les 15 UTC
Núvols disperses a una alçada de 3500 ft

TAF: SBFL 200300Z 2006/2106 19008KT 9999 BKN030 TN13/2007Z TX17/2017Z BECMG 2013/2015 SCT035 RMK PER

Observacions i pronòstics meteorològics de més de 4000 aeroports (METAR i TAF).

Les estacions disponibles són els punts grocs i vermells al mapa.

Posi el ratolí al punt desitjat per veure el nom de l'estació.

Feu clic per veure les observacions i els pronòstics meteorològics.

Per canviar el mapa: feu clic els botons verds amb una creu de color negre per apropar; al botó verd amb un guió per allunyar la imatge; o en les fletxes verdes per a mapes adjacents.


METAR-TAF: